North Greenbush, New York
Current Conditions -  °F | °C
As of 6:51 AM on Sunday 21 Dec 2014 (Local Time) from KALB Reporting Station
Light Snow Light Snow  
Wind Chill: 22°   Ceiling: 2700
Heat Index: 27°   Visibility: 10mi
Dew Point: 20°   Wind: 5mph
Humidity: 75%   Direction: 60°ENE
Pressure: 30.33"   Gusts: NA
Location:  42.6729°N, 73.6385°W
Report Text: KALB 211151Z 06004KT 10SM -SN SCT021 OVC027 M03/M07 A3033 RMK AO2 SLP274 4/001 P0000 60000 T10281067 11022 21028 53007
Loading
Personal Weather Stations






























Interactive Weather Map New forecast layout! Learn more

10-Day Weather Forecast

Advertisements
Track Severe Weather on mobile